createdAt,value
2023-07-10T00:01:42.560Z,4.22
2023-07-10T00:04:20.430Z,4.25
2023-07-10T00:06:48.284Z,3.58
2023-07-10T00:09:14.841Z,3.95
2023-07-10T00:11:42.983Z,4.53
2023-07-10T00:14:25.477Z,4.95
2023-07-10T00:16:53.521Z,4.07
2023-07-10T00:19:23.805Z,4.75
2023-07-10T00:21:51.518Z,4.03
2023-07-10T00:24:17.970Z,4.20
2023-07-10T00:26:44.506Z,4.20
2023-07-10T00:29:23.486Z,4.18
2023-07-10T00:31:50.075Z,3.90
2023-07-10T00:34:18.280Z,4.15
2023-07-10T00:36:51.688Z,4.47
2023-07-10T00:39:25.764Z,4.10
2023-07-10T00:42:11.565Z,4.18
2023-07-10T00:45:01.584Z,4.20
2023-07-10T00:47:36.754Z,4.53
2023-07-10T00:50:10.356Z,3.85
2023-07-10T00:52:41.073Z,4.25
2023-07-10T00:55:32.333Z,4.32
2023-07-10T00:58:30.155Z,3.53
2023-07-10T01:01:07.637Z,4.15
2023-07-10T01:03:35.785Z,4.22
2023-07-10T01:06:17.281Z,4.20
2023-07-10T01:08:49.735Z,3.88
2023-07-10T01:11:17.195Z,4.63
2023-07-10T01:13:47.552Z,4.53
2023-07-10T01:16:14.379Z,4.55
2023-07-10T01:18:42.270Z,4.43
2023-07-10T01:21:09.863Z,4.53
2023-07-10T01:23:36.388Z,4.15
2023-07-10T01:26:05.339Z,4.35
2023-07-10T01:28:36.178Z,4.75
2023-07-10T01:31:09.586Z,3.88
2023-07-10T01:33:41.117Z,4.18
2023-07-10T01:36:10.626Z,4.35
2023-07-10T01:38:47.397Z,4.25
2023-07-10T01:41:24.843Z,5.25
2023-07-10T01:43:51.419Z,4.45
2023-07-10T01:46:24.957Z,4.20
2023-07-10T01:48:56.036Z,4.63
2023-07-10T01:51:23.807Z,4.50
2023-07-10T01:53:51.312Z,3.92
2023-07-10T01:56:20.442Z,4.60
2023-07-10T01:58:46.900Z,4.35
2023-07-10T02:01:13.515Z,4.50
2023-07-10T02:03:40.166Z,4.13
2023-07-10T02:06:06.886Z,4.40
2023-07-10T02:08:33.553Z,4.03
2023-07-10T02:11:00.141Z,4.65
2023-07-10T02:13:26.903Z,4.10
2023-07-10T02:15:53.379Z,3.78
2023-07-10T02:18:19.905Z,4.20
2023-07-10T02:20:46.381Z,4.25
2023-07-10T02:23:12.898Z,4.38
2023-07-10T02:25:39.700Z,4.32
2023-07-10T02:28:07.151Z,4.43
2023-07-10T02:30:33.706Z,4.22
2023-07-10T02:33:00.350Z,4.30
2023-07-10T02:35:26.790Z,4.07
2023-07-10T02:37:53.276Z,4.10
2023-07-10T02:40:19.702Z,4.05
2023-07-10T02:42:46.317Z,4.10
2023-07-10T02:45:14.338Z,4.35
2023-07-10T02:47:40.980Z,4.50
2023-07-10T02:50:10.342Z,4.40
2023-07-10T02:52:36.839Z,4.18
2023-07-10T02:55:03.886Z,4.60
2023-07-10T02:57:30.372Z,4.55
2023-07-10T02:59:58.117Z,4.22
2023-07-10T03:02:25.280Z,4.43
2023-07-10T03:04:51.910Z,5.10
2023-07-10T03:07:18.378Z,4.00
2023-07-10T03:09:45.587Z,4.18
2023-07-10T03:14:38.675Z,4.22
2023-07-10T03:17:05.481Z,4.13
2023-07-10T03:19:32.830Z,4.45
2023-07-10T03:21:59.463Z,4.50
2023-07-10T03:24:26.154Z,4.50
2023-07-10T03:26:52.642Z,4.43
2023-07-10T03:29:19.101Z,4.47
2023-07-10T03:31:45.658Z,4.68
2023-07-10T03:34:13.160Z,4.40
2023-07-10T03:36:40.190Z,4.63
2023-07-10T03:39:07.849Z,4.85
2023-07-10T03:41:34.756Z,4.40
2023-07-10T03:44:01.505Z,4.38
2023-07-10T03:46:28.261Z,4.30
2023-07-10T03:48:54.770Z,4.28
2023-07-10T03:51:21.255Z,4.38
2023-07-10T03:53:48.470Z,4.40
2023-07-10T03:58:44.126Z,4.50
2023-07-10T04:01:11.421Z,4.20
2023-07-10T04:03:40.115Z,4.70
2023-07-10T04:06:08.887Z,4.43
2023-07-10T04:08:38.506Z,4.22
2023-07-10T04:11:08.781Z,4.60
2023-07-10T04:13:35.449Z,4.38
2023-07-10T04:16:10.974Z,4.93
2023-07-10T04:18:39.385Z,4.88
2023-07-10T04:21:29.799Z,4.65
2023-07-10T04:23:57.421Z,4.68
2023-07-10T04:26:26.883Z,4.97
2023-07-10T04:28:56.483Z,5.18
2023-07-10T04:31:24.568Z,5.70
2023-07-10T04:33:52.322Z,4.78
2023-07-10T04:36:20.389Z,5.18
2023-07-10T04:38:47.171Z,5.65
2023-07-10T04:41:19.134Z,4.85
2023-07-10T04:43:45.796Z,4.95
2023-07-10T04:46:14.110Z,5.50
2023-07-10T04:48:40.800Z,4.72
2023-07-10T04:51:09.176Z,4.20
2023-07-10T04:53:35.834Z,4.78
2023-07-10T04:56:04.733Z,5.25
2023-07-10T04:58:46.537Z,4.65
2023-07-10T05:01:13.061Z,4.43
2023-07-10T05:03:39.499Z,4.60
2023-07-10T05:06:06.234Z,4.25
2023-07-10T05:08:32.942Z,4.50
2023-07-10T05:10:59.697Z,4.78
2023-07-10T05:13:28.796Z,4.82
2023-07-10T05:15:57.306Z,4.90
2023-07-10T05:18:24.173Z,4.60
2023-07-10T05:20:50.663Z,4.70
2023-07-10T05:23:17.573Z,4.45
2023-07-10T05:26:03.270Z,4.80
2023-07-10T05:28:30.246Z,4.72
2023-07-10T05:30:59.923Z,4.72
2023-07-10T05:33:26.971Z,4.60
2023-07-10T05:35:56.374Z,4.60
2023-07-10T05:38:25.108Z,4.55
2023-07-10T05:40:51.907Z,4.65
2023-07-10T05:43:18.368Z,4.50
2023-07-10T05:45:45.357Z,4.25
2023-07-10T05:50:38.528Z,4.53
2023-07-10T05:53:05.952Z,4.80
2023-07-10T05:55:32.451Z,4.50
2023-07-10T05:57:59.018Z,4.50
2023-07-10T06:00:25.780Z,4.18
2023-07-10T06:02:52.262Z,4.32
2023-07-10T06:05:18.717Z,4.68
2023-07-10T06:07:45.281Z,4.60
2023-07-10T06:10:11.762Z,3.92
2023-07-10T06:12:38.280Z,4.38
2023-07-10T06:15:05.336Z,3.90
2023-07-10T06:17:31.932Z,3.83
2023-07-10T06:19:58.435Z,3.72
2023-07-10T06:22:25.112Z,4.32
2023-07-10T06:27:18.275Z,3.90
2023-07-10T06:29:44.801Z,4.53
2023-07-10T06:34:37.899Z,4.47
2023-07-10T06:37:04.692Z,4.68
2023-07-10T06:39:31.186Z,4.15
2023-07-10T06:41:57.709Z,4.57
2023-07-10T06:46:50.792Z,3.92
2023-07-10T06:49:17.552Z,4.00
2023-07-10T06:51:44.097Z,4.03
2023-07-10T06:54:11.459Z,4.55
2023-07-10T06:56:38.166Z,4.00
2023-07-10T06:59:04.612Z,4.55
2023-07-10T07:03:57.799Z,4.32
2023-07-10T07:06:24.638Z,5.10
2023-07-10T07:08:53.038Z,4.65
2023-07-10T07:11:20.386Z,4.90
2023-07-10T07:13:47.000Z,4.90
2023-07-10T07:16:14.811Z,5.05
2023-07-10T07:18:41.434Z,4.55
2023-07-10T07:21:08.888Z,5.00
2023-07-10T07:23:35.632Z,4.65
2023-07-10T07:26:02.449Z,3.90
2023-07-10T07:28:29.113Z,4.50
2023-07-10T07:31:02.275Z,4.68
2023-07-10T07:35:55.284Z,4.38
2023-07-10T07:38:22.610Z,4.28
2023-07-10T07:40:49.512Z,4.38
2023-07-10T07:43:17.266Z,4.40
2023-07-10T07:45:57.996Z,4.85
2023-07-10T07:48:26.064Z,4.38
2023-07-10T07:51:15.549Z,4.57
2023-07-10T07:53:42.911Z,3.97
2023-07-10T07:56:10.124Z,4.13
2023-07-10T07:58:37.009Z,4.78
2023-07-10T08:01:04.061Z,4.00
2023-07-10T08:03:31.951Z,4.28
2023-07-10T08:05:58.869Z,4.45
2023-07-10T08:08:25.981Z,4.13
2023-07-10T08:10:52.521Z,4.18
2023-07-10T08:13:21.029Z,4.10
2023-07-10T08:15:47.733Z,4.50
2023-07-10T08:18:14.452Z,4.93
2023-07-10T08:20:41.397Z,4.30
2023-07-10T08:23:07.912Z,4.13
2023-07-10T08:25:34.620Z,4.47
2023-07-10T08:28:01.740Z,3.97
2023-07-10T08:30:28.954Z,3.42
2023-07-10T08:32:55.853Z,3.95
2023-07-10T08:35:23.399Z,4.15
2023-07-10T08:37:50.936Z,4.10
2023-07-10T08:40:41.726Z,4.05
2023-07-10T08:43:41.174Z,3.58
2023-07-10T08:46:11.994Z,3.88
2023-07-10T08:48:57.411Z,3.97
2023-07-10T08:51:40.986Z,3.75
2023-07-10T08:54:12.902Z,3.53
2023-07-10T08:56:51.487Z,3.67
2023-07-10T08:59:43.718Z,3.47
2023-07-10T09:02:32.541Z,3.55
2023-07-10T09:05:00.948Z,3.78
2023-07-10T09:07:28.442Z,3.78
2023-07-10T09:10:03.805Z,4.35
2023-07-10T09:12:42.968Z,3.67
2023-07-10T09:15:16.774Z,3.70
2023-07-10T09:18:02.190Z,3.70
2023-07-10T09:20:28.873Z,4.25
2023-07-10T09:23:18.487Z,3.53
2023-07-10T09:25:44.932Z,3.83
2023-07-10T09:28:11.488Z,4.10
2023-07-10T09:30:52.877Z,4.68
2023-07-10T09:33:21.528Z,3.58
2023-07-10T09:35:49.044Z,3.83
2023-07-10T09:38:19.804Z,3.63
2023-07-10T09:40:51.471Z,3.70
2023-07-10T09:43:21.159Z,4.20
2023-07-10T09:45:58.584Z,4.25
2023-07-10T09:48:32.720Z,3.92
2023-07-10T09:51:03.736Z,3.63
2023-07-10T09:53:33.088Z,3.75
2023-07-10T09:56:00.225Z,3.80
2023-07-10T09:58:27.446Z,3.45
2023-07-10T10:00:54.032Z,3.78
2023-07-10T10:03:26.874Z,3.80
2023-07-10T10:05:56.646Z,4.10
2023-07-10T10:08:28.665Z,4.13
2023-07-10T10:11:02.504Z,3.97
2023-07-10T10:13:31.272Z,4.28
2023-07-10T10:16:07.443Z,3.72
2023-07-10T10:18:58.222Z,4.13
2023-07-10T10:21:25.210Z,4.45
2023-07-10T10:23:58.494Z,4.05
2023-07-10T10:26:30.602Z,4.25
2023-07-10T10:29:00.041Z,4.80
2023-07-10T10:31:32.742Z,4.07
2023-07-10T10:34:24.456Z,4.18
2023-07-10T10:37:27.381Z,4.40
2023-07-10T10:40:12.470Z,4.18
2023-07-10T10:42:50.373Z,3.97
2023-07-10T10:45:35.496Z,3.72
2023-07-10T10:48:16.748Z,3.70
2023-07-10T10:51:27.886Z,4.00
2023-07-10T10:54:03.502Z,4.20
2023-07-10T10:56:39.554Z,3.83
2023-07-10T10:59:24.492Z,4.22
2023-07-10T11:01:53.625Z,4.35
2023-07-10T11:04:37.396Z,4.78
2023-07-10T11:07:11.954Z,4.00
2023-07-10T11:10:00.892Z,4.40
2023-07-10T11:12:31.569Z,4.40
2023-07-10T11:15:03.189Z,4.75
2023-07-10T11:17:30.152Z,4.15
2023-07-10T11:19:56.769Z,4.10
2023-07-10T11:22:32.993Z,4.25
2023-07-10T11:25:02.396Z,4.20
2023-07-10T11:27:34.553Z,4.80
2023-07-10T11:30:09.250Z,4.07
2023-07-10T11:32:56.822Z,4.32
2023-07-10T11:35:24.101Z,3.83
2023-07-10T11:37:50.683Z,4.20
2023-07-10T11:40:29.444Z,4.35
2023-07-10T11:42:56.669Z,4.53
2023-07-10T11:45:37.022Z,4.53
2023-07-10T11:48:03.626Z,3.97
2023-07-10T11:50:30.931Z,3.72
2023-07-10T11:53:15.658Z,3.92
2023-07-10T11:55:54.177Z,3.70
2023-07-10T11:58:30.011Z,3.72
2023-07-10T12:01:16.483Z,3.55
2023-07-10T12:06:25.150Z,3.65
2023-07-10T12:08:53.691Z,3.80
2023-07-10T12:11:27.163Z,3.45
2023-07-10T12:13:54.095Z,3.47
2023-07-10T12:16:36.747Z,3.50
2023-07-10T12:19:15.794Z,3.20
2023-07-10T12:21:43.170Z,3.95
2023-07-10T12:24:14.068Z,3.63
2023-07-10T12:27:05.820Z,3.92
2023-07-10T12:29:27.186Z,3.90
2023-07-10T12:31:53.693Z,4.05
2023-07-10T12:34:25.079Z,4.20
2023-07-10T12:36:54.982Z,3.20
2023-07-10T12:39:23.696Z,3.38
2023-07-10T12:41:53.958Z,3.25
2023-07-10T12:44:44.413Z,3.40
2023-07-10T12:47:14.876Z,3.22
2023-07-10T12:49:51.094Z,3.38
2023-07-10T12:52:17.638Z,3.70
2023-07-10T12:54:51.198Z,3.20
2023-07-10T12:57:26.475Z,3.40
2023-07-10T13:00:01.813Z,3.63
2023-07-10T13:02:36.268Z,3.47
2023-07-10T13:05:06.495Z,3.85
2023-07-10T13:07:36.467Z,3.28
2023-07-10T13:10:20.259Z,3.70
2023-07-10T13:12:49.749Z,2.80
2023-07-10T13:15:18.597Z,3.50
2023-07-10T13:17:49.464Z,3.40
2023-07-10T13:20:28.100Z,3.63
2023-07-10T13:23:00.332Z,3.10
2023-07-10T13:25:32.709Z,3.47
2023-07-10T13:27:59.206Z,3.08
2023-07-10T13:30:26.505Z,3.53
2023-07-10T13:32:53.278Z,3.00
2023-07-10T13:35:20.666Z,3.10
2023-07-10T13:37:47.298Z,3.45
2023-07-10T13:40:20.779Z,3.15
2023-07-10T13:42:47.246Z,2.80
2023-07-10T13:45:13.763Z,3.20
2023-07-10T13:47:40.218Z,2.92
2023-07-10T13:50:07.087Z,3.03
2023-07-10T13:52:33.537Z,3.08
2023-07-10T13:55:00.052Z,3.50
2023-07-10T13:57:31.760Z,3.47
2023-07-10T14:00:02.392Z,3.30
2023-07-10T14:02:38.055Z,3.00
2023-07-10T14:05:12.637Z,3.10
2023-07-10T14:07:41.152Z,4.10
2023-07-10T14:10:13.189Z,3.42
2023-07-10T14:12:39.898Z,3.33
2023-07-10T14:15:06.949Z,3.42
2023-07-10T14:17:35.346Z,3.67
2023-07-10T14:20:06.191Z,3.33
2023-07-10T14:22:34.428Z,3.08
2023-07-10T14:25:01.309Z,3.72
2023-07-10T14:27:28.942Z,3.20
2023-07-10T14:29:57.410Z,3.10
2023-07-10T14:32:26.732Z,3.50
2023-07-10T14:34:53.418Z,3.60
2023-07-10T14:37:26.879Z,3.15
2023-07-10T14:39:53.974Z,3.25
2023-07-10T14:42:26.067Z,3.60
2023-07-10T14:44:52.912Z,3.75
2023-07-10T14:47:19.391Z,3.40
2023-07-10T14:49:49.577Z,3.28
2023-07-10T14:52:25.360Z,3.10
2023-07-10T14:54:59.370Z,3.58
2023-07-10T14:57:29.051Z,3.65
2023-07-10T14:59:56.307Z,3.78
2023-07-10T15:02:26.132Z,4.80
2023-07-10T15:04:53.699Z,4.38
2023-07-10T15:07:21.526Z,4.55
2023-07-10T15:09:50.920Z,4.43
2023-07-10T15:12:21.934Z,3.33
2023-07-10T15:14:51.297Z,4.38
2023-07-10T15:17:26.335Z,3.95
2023-07-10T15:19:53.609Z,3.75
2023-07-10T15:22:22.842Z,4.30
2023-07-10T15:24:50.604Z,3.97
2023-07-10T15:27:17.908Z,4.00
2023-07-10T15:29:44.577Z,3.92
2023-07-10T15:32:17.167Z,3.35
2023-07-10T15:34:45.028Z,3.30
2023-07-10T15:37:21.547Z,3.22
2023-07-10T15:39:48.958Z,3.30
2023-07-10T15:42:17.029Z,3.53
2023-07-10T15:44:44.703Z,3.25
2023-07-10T15:47:37.567Z,3.53
2023-07-10T15:50:04.579Z,3.53
2023-07-10T15:52:35.528Z,3.45
2023-07-10T15:55:20.977Z,3.00
2023-07-10T15:57:49.221Z,3.55
2023-07-10T16:00:18.007Z,3.55
2023-07-10T16:02:47.057Z,3.45
2023-07-10T16:05:21.556Z,3.63
2023-07-10T16:07:49.507Z,3.65
2023-07-10T16:10:16.117Z,3.38
2023-07-10T16:12:43.445Z,3.70
2023-07-10T16:15:15.010Z,3.80
2023-07-10T16:17:41.844Z,3.60
2023-07-10T16:20:14.021Z,4.00
2023-07-10T16:22:40.924Z,3.38
2023-07-10T16:25:15.988Z,3.42
2023-07-10T16:27:44.296Z,4.10
2023-07-10T16:30:19.737Z,3.45
2023-07-10T16:32:49.599Z,3.58
2023-07-10T16:35:18.706Z,3.60
2023-07-10T16:37:45.995Z,3.47
2023-07-10T16:40:17.976Z,3.55
2023-07-10T16:42:46.312Z,3.97
2023-07-10T16:45:22.282Z,3.60
2023-07-10T16:47:49.132Z,3.53
2023-07-10T16:50:18.341Z,4.15
2023-07-10T16:52:46.041Z,3.53
2023-07-10T16:55:18.252Z,4.20
2023-07-10T16:57:47.078Z,3.75
2023-07-10T17:00:16.194Z,3.88
2023-07-10T17:02:45.258Z,3.80
2023-07-10T17:05:14.100Z,3.83
2023-07-10T17:07:42.654Z,3.88
2023-07-10T17:10:09.824Z,6.97
2023-07-10T17:12:37.928Z,4.85
2023-07-10T17:15:14.016Z,4.38
2023-07-10T17:17:40.790Z,3.97
2023-07-10T17:20:10.295Z,4.30
2023-07-10T17:22:36.836Z,4.18
2023-07-10T17:27:37.462Z,3.55
2023-07-10T17:30:05.476Z,3.47
2023-07-10T17:32:32.138Z,5.60
2023-07-10T17:34:59.959Z,4.10
2023-07-10T17:37:26.667Z,3.97
2023-07-10T17:39:53.119Z,3.90
2023-07-10T17:42:25.917Z,4.60
2023-07-10T17:44:52.448Z,4.88
2023-07-10T17:49:46.374Z,4.18
2023-07-10T17:52:18.005Z,3.50
2023-07-10T17:54:45.470Z,3.83
2023-07-10T17:57:18.012Z,3.40
2023-07-10T17:59:46.173Z,3.65
2023-07-10T18:02:23.371Z,4.32
2023-07-10T18:04:50.252Z,4.05
2023-07-10T18:07:16.873Z,4.32
2023-07-10T18:09:43.364Z,4.10
2023-07-10T18:12:14.245Z,3.78
2023-07-10T18:14:46.348Z,4.13
2023-07-10T18:17:20.591Z,4.40
2023-07-10T18:19:50.619Z,4.07
2023-07-10T18:22:17.797Z,4.32
2023-07-10T18:24:44.986Z,3.88
2023-07-10T18:27:21.687Z,4.10
2023-07-10T18:29:49.559Z,4.30
2023-07-10T18:32:21.220Z,4.30
2023-07-10T18:34:50.686Z,4.68
2023-07-10T18:37:19.557Z,4.30
2023-07-10T18:39:46.258Z,3.78
2023-07-10T18:44:48.956Z,4.22
2023-07-10T18:47:15.440Z,4.22
2023-07-10T18:49:42.053Z,3.97
2023-07-10T18:52:30.218Z,3.45
2023-07-10T18:54:56.919Z,4.07
2023-07-10T18:57:23.638Z,3.75
2023-07-10T19:02:16.841Z,3.72
2023-07-10T19:04:43.420Z,3.47
2023-07-10T19:07:13.597Z,3.45
2023-07-10T19:09:42.654Z,3.75
2023-07-10T19:12:16.959Z,3.42
2023-07-10T19:14:45.084Z,2.88
2023-07-10T19:17:21.127Z,3.40
2023-07-10T19:19:52.655Z,3.13
2023-07-10T19:22:19.704Z,3.53
2023-07-10T19:24:46.454Z,3.70
2023-07-10T19:29:40.443Z,3.30
2023-07-10T19:32:21.722Z,3.25
2023-07-10T19:34:49.998Z,3.55
2023-07-10T19:37:16.521Z,3.20
2023-07-10T19:39:44.725Z,3.05
2023-07-10T19:42:11.157Z,3.22
2023-07-10T19:44:55.110Z,3.10
2023-07-10T19:47:24.413Z,3.30
2023-07-10T19:49:52.761Z,3.33
2023-07-10T19:54:46.493Z,3.45
2023-07-10T19:57:18.942Z,3.17
2023-07-10T19:59:45.716Z,3.58
2023-07-10T20:02:14.047Z,3.03
2023-07-10T20:04:40.525Z,3.38
2023-07-10T20:07:07.122Z,3.28
2023-07-10T20:09:33.601Z,3.30
2023-07-10T20:12:00.130Z,3.05
2023-07-10T20:14:28.598Z,3.67
2023-07-10T20:16:56.027Z,3.33
2023-07-10T20:19:24.295Z,3.47
2023-07-10T20:21:55.540Z,3.15
2023-07-10T20:24:22.507Z,3.97
2023-07-10T20:26:49.843Z,3.63
2023-07-10T20:29:19.511Z,3.70
2023-07-10T20:31:47.124Z,3.03
2023-07-10T20:34:14.980Z,3.10
2023-07-10T20:36:44.490Z,3.47
2023-07-10T20:39:16.877Z,3.65
2023-07-10T20:41:44.812Z,3.80
2023-07-10T20:44:15.525Z,3.30
2023-07-10T20:46:44.835Z,3.90
2023-07-10T20:49:19.782Z,3.35
2023-07-10T20:51:46.787Z,3.35
2023-07-10T20:54:15.760Z,3.50
2023-07-10T20:56:43.395Z,3.45
2023-07-10T20:59:21.554Z,3.67
2023-07-10T21:01:49.533Z,3.40
2023-07-10T21:04:17.285Z,3.25
2023-07-10T21:06:43.915Z,3.25
2023-07-10T21:09:28.728Z,3.83
2023-07-10T21:11:55.416Z,3.70
2023-07-10T21:14:22.042Z,3.50
2023-07-10T21:16:48.645Z,3.22
2023-07-10T21:19:23.942Z,3.45
2023-07-10T21:21:51.810Z,3.35
2023-07-10T21:24:21.152Z,3.45
2023-07-10T21:26:55.078Z,3.30
2023-07-10T21:29:21.615Z,3.10
2023-07-10T21:31:48.112Z,3.20
2023-07-10T21:34:15.733Z,3.47
2023-07-10T21:36:43.352Z,3.90
2023-07-10T21:39:10.093Z,3.83
2023-07-10T21:41:39.365Z,3.17
2023-07-10T21:44:09.020Z,3.30
2023-07-10T21:46:36.259Z,3.42
2023-07-10T21:49:03.321Z,3.53
2023-07-10T21:51:29.924Z,3.53
2023-07-10T21:53:56.421Z,3.25
2023-07-10T21:56:25.956Z,3.63
2023-07-10T21:58:55.741Z,3.65
2023-07-10T22:01:26.255Z,3.38
2023-07-10T22:03:53.231Z,3.20
2023-07-10T22:08:46.640Z,3.55
2023-07-10T22:11:20.079Z,3.45
2023-07-10T22:13:48.796Z,3.20
2023-07-10T22:16:30.211Z,3.75
2023-07-10T22:18:59.567Z,4.05
2023-07-10T22:21:30.005Z,3.80
2023-07-10T22:23:57.377Z,3.90
2023-07-10T22:26:25.153Z,3.70
2023-07-10T22:28:51.846Z,3.38
2023-07-10T22:31:24.162Z,4.00
2023-07-10T22:33:51.214Z,3.63
2023-07-10T22:36:19.643Z,4.20
2023-07-10T22:38:46.538Z,3.72
2023-07-10T22:41:31.764Z,3.55
2023-07-10T22:44:08.030Z,3.63
2023-07-10T22:46:36.973Z,3.63
2023-07-10T22:49:05.191Z,3.45
2023-07-10T22:51:34.137Z,3.65
2023-07-10T22:54:04.820Z,3.67
2023-07-10T22:56:34.304Z,3.13
2023-07-10T22:59:01.417Z,3.83
2023-07-10T23:06:28.107Z,3.40
2023-07-10T23:08:55.615Z,4.00
2023-07-10T23:11:22.558Z,4.07
2023-07-10T23:13:50.179Z,3.58
2023-07-10T23:16:21.522Z,3.72
2023-07-10T23:18:59.193Z,3.72
2023-07-10T23:21:27.635Z,3.67
2023-07-10T23:23:54.463Z,3.78
2023-07-10T23:26:22.847Z,4.03
2023-07-10T23:28:50.045Z,3.85
2023-07-10T23:31:23.738Z,3.85
2023-07-10T23:33:50.895Z,4.10
2023-07-10T23:41:12.741Z,4.20
2023-07-10T23:43:40.348Z,3.97
2023-07-10T23:46:07.543Z,3.95
2023-07-10T23:48:34.523Z,3.85
2023-07-10T23:51:01.405Z,4.13
2023-07-10T23:53:28.156Z,4.13
2023-07-10T23:55:54.644Z,3.95
2023-07-10T23:58:21.244Z,3.83
